sensor_id;sensor_type;location;lat;lon;timestamp;temperature;humidity
54938;DHT22;52756;52.826;6.214;2023-07-31T00:00:32;17.90;77.90
54938;DHT22;52756;52.826;6.214;2023-07-31T00:02:58;17.90;77.90
54938;DHT22;52756;52.826;6.214;2023-07-31T00:05:24;17.90;77.90
54938;DHT22;52756;52.826;6.214;2023-07-31T00:07:49;17.80;77.90
54938;DHT22;52756;52.826;6.214;2023-07-31T00:10:15;17.90;77.90
54938;DHT22;52756;52.826;6.214;2023-07-31T00:12:42;17.90;77.90
54938;DHT22;52756;52.826;6.214;2023-07-31T00:15:09;17.90;77.90
54938;DHT22;52756;52.826;6.214;2023-07-31T00:17:35;17.90;78.00
54938;DHT22;52756;52.826;6.214;2023-07-31T00:20:01;17.80;78.00
54938;DHT22;52756;52.826;6.214;2023-07-31T00:22:27;17.80;78.00
54938;DHT22;52756;52.826;6.214;2023-07-31T00:24:53;17.90;78.10
54938;DHT22;52756;52.826;6.214;2023-07-31T00:27:19;17.80;78.10
54938;DHT22;52756;52.826;6.214;2023-07-31T00:29:44;17.90;78.10
54938;DHT22;52756;52.826;6.214;2023-07-31T00:32:10;17.80;78.10
54938;DHT22;52756;52.826;6.214;2023-07-31T00:34:36;17.90;78.20
54938;DHT22;52756;52.826;6.214;2023-07-31T00:37:01;17.80;78.10
54938;DHT22;52756;52.826;6.214;2023-07-31T00:39:27;17.80;78.10
54938;DHT22;52756;52.826;6.214;2023-07-31T00:41:53;17.80;78.10
54938;DHT22;52756;52.826;6.214;2023-07-31T00:44:18;17.80;78.20
54938;DHT22;52756;52.826;6.214;2023-07-31T00:46:44;17.80;78.20
54938;DHT22;52756;52.826;6.214;2023-07-31T00:49:11;17.80;78.30
54938;DHT22;52756;52.826;6.214;2023-07-31T00:51:37;17.70;78.30
54938;DHT22;52756;52.826;6.214;2023-07-31T00:54:03;17.70;78.50
54938;DHT22;52756;52.826;6.214;2023-07-31T00:56:29;17.70;78.50
54938;DHT22;52756;52.826;6.214;2023-07-31T00:58:55;17.70;78.60
54938;DHT22;52756;52.826;6.214;2023-07-31T01:01:21;17.60;78.60
54938;DHT22;52756;52.826;6.214;2023-07-31T01:03:48;17.60;78.70
54938;DHT22;52756;52.826;6.214;2023-07-31T01:06:44;17.60;78.90
54938;DHT22;52756;52.826;6.214;2023-07-31T01:09:36;17.60;78.90
54938;DHT22;52756;52.826;6.214;2023-07-31T01:12:04;17.60;78.90
54938;DHT22;52756;52.826;6.214;2023-07-31T01:14:32;17.50;79.00
54938;DHT22;52756;52.826;6.214;2023-07-31T01:16:57;17.50;79.00
54938;DHT22;52756;52.826;6.214;2023-07-31T01:19:24;17.50;79.20
54938;DHT22;52756;52.826;6.214;2023-07-31T01:24:59;17.50;79.30
54938;DHT22;52756;52.826;6.214;2023-07-31T01:27:30;17.40;79.30
54938;DHT22;52756;52.826;6.214;2023-07-31T01:30:15;17.50;79.50
54938;DHT22;52756;52.826;6.214;2023-07-31T01:32:43;17.40;79.60
54938;DHT22;52756;52.826;6.214;2023-07-31T01:35:10;17.40;79.60
54938;DHT22;52756;52.826;6.214;2023-07-31T01:37:36;17.40;79.80
54938;DHT22;52756;52.826;6.214;2023-07-31T01:40:01;17.40;79.90
54938;DHT22;52756;52.826;6.214;2023-07-31T01:42:27;17.50;79.90
54938;DHT22;52756;52.826;6.214;2023-07-31T01:44:53;17.40;79.90
54938;DHT22;52756;52.826;6.214;2023-07-31T01:47:19;17.50;80.00
54938;DHT22;52756;52.826;6.214;2023-07-31T01:49:44;17.50;80.10
54938;DHT22;52756;52.826;6.214;2023-07-31T01:52:10;17.50;80.10
54938;DHT22;52756;52.826;6.214;2023-07-31T01:54:35;17.50;80.10
54938;DHT22;52756;52.826;6.214;2023-07-31T01:57:02;17.50;80.20
54938;DHT22;52756;52.826;6.214;2023-07-31T01:59:28;17.50;80.20
54938;DHT22;52756;52.826;6.214;2023-07-31T02:01:54;17.50;80.20
54938;DHT22;52756;52.826;6.214;2023-07-31T02:04:20;17.50;80.30
54938;DHT22;52756;52.826;6.214;2023-07-31T02:06:46;17.50;80.20
54938;DHT22;52756;52.826;6.214;2023-07-31T02:09:11;17.50;80.10
54938;DHT22;52756;52.826;6.214;2023-07-31T02:11:37;17.60;79.90
54938;DHT22;52756;52.826;6.214;2023-07-31T02:14:03;17.60;79.90
54938;DHT22;52756;52.826;6.214;2023-07-31T02:16:28;17.70;80.00
54938;DHT22;52756;52.826;6.214;2023-07-31T02:18:54;17.70;80.00
54938;DHT22;52756;52.826;6.214;2023-07-31T02:21:19;17.70;80.10
54938;DHT22;52756;52.826;6.214;2023-07-31T02:23:45;17.70;80.10
54938;DHT22;52756;52.826;6.214;2023-07-31T02:26:11;17.70;80.00
54938;DHT22;52756;52.826;6.214;2023-07-31T02:28:37;17.70;80.00
54938;DHT22;52756;52.826;6.214;2023-07-31T02:31:03;17.70;79.90
54938;DHT22;52756;52.826;6.214;2023-07-31T02:33:28;17.80;80.00
54938;DHT22;52756;52.826;6.214;2023-07-31T02:35:54;17.80;80.00
54938;DHT22;52756;52.826;6.214;2023-07-31T02:38:20;17.80;80.00
54938;DHT22;52756;52.826;6.214;2023-07-31T02:40:45;17.80;80.00
54938;DHT22;52756;52.826;6.214;2023-07-31T02:43:11;17.80;80.00
54938;DHT22;52756;52.826;6.214;2023-07-31T02:45:37;17.80;80.00
54938;DHT22;52756;52.826;6.214;2023-07-31T02:48:03;17.80;80.00
54938;DHT22;52756;52.826;6.214;2023-07-31T02:50:29;17.80;80.00
54938;DHT22;52756;52.826;6.214;2023-07-31T02:52:54;17.80;80.00
54938;DHT22;52756;52.826;6.214;2023-07-31T02:55:20;17.80;80.00
54938;DHT22;52756;52.826;6.214;2023-07-31T02:57:46;17.80;80.10
54938;DHT22;52756;52.826;6.214;2023-07-31T03:00:12;17.80;80.30
54938;DHT22;52756;52.826;6.214;2023-07-31T03:02:38;17.80;80.30
54938;DHT22;52756;52.826;6.214;2023-07-31T03:05:04;17.80;80.30
54938;DHT22;52756;52.826;6.214;2023-07-31T03:07:30;17.80;80.20
54938;DHT22;52756;52.826;6.214;2023-07-31T03:09:56;17.80;80.20
54938;DHT22;52756;52.826;6.214;2023-07-31T03:12:22;17.80;80.10
54938;DHT22;52756;52.826;6.214;2023-07-31T03:14:47;17.80;80.20
54938;DHT22;52756;52.826;6.214;2023-07-31T03:17:13;17.80;80.40
54938;DHT22;52756;52.826;6.214;2023-07-31T03:19:39;17.80;80.30
54938;DHT22;52756;52.826;6.214;2023-07-31T03:22:05;17.80;80.30
54938;DHT22;52756;52.826;6.214;2023-07-31T03:24:30;17.90;80.30
54938;DHT22;52756;52.826;6.214;2023-07-31T03:26:56;17.90;80.20
54938;DHT22;52756;52.826;6.214;2023-07-31T03:29:22;17.90;80.10
54938;DHT22;52756;52.826;6.214;2023-07-31T03:31:48;17.90;80.10
54938;DHT22;52756;52.826;6.214;2023-07-31T03:34:13;17.90;80.10
54938;DHT22;52756;52.826;6.214;2023-07-31T03:36:39;17.90;80.10
54938;DHT22;52756;52.826;6.214;2023-07-31T03:39:05;18.00;80.10
54938;DHT22;52756;52.826;6.214;2023-07-31T03:41:30;18.00;80.20
54938;DHT22;52756;52.826;6.214;2023-07-31T03:43:56;18.00;80.20
54938;DHT22;52756;52.826;6.214;2023-07-31T03:46:23;18.00;80.30
54938;DHT22;52756;52.826;6.214;2023-07-31T03:48:49;18.00;80.20
54938;DHT22;52756;52.826;6.214;2023-07-31T03:51:15;18.00;80.30
54938;DHT22;52756;52.826;6.214;2023-07-31T03:53:40;18.00;80.40
54938;DHT22;52756;52.826;6.214;2023-07-31T03:56:06;18.00;80.30
54938;DHT22;52756;52.826;6.214;2023-07-31T03:58:32;18.00;80.30
54938;DHT22;52756;52.826;6.214;2023-07-31T04:00:58;18.10;80.50
54938;DHT22;52756;52.826;6.214;2023-07-31T04:03:23;18.10;80.40
54938;DHT22;52756;52.826;6.214;2023-07-31T04:05:49;18.10;80.50
54938;DHT22;52756;52.826;6.214;2023-07-31T04:08:15;18.10;80.70
54938;DHT22;52756;52.826;6.214;2023-07-31T04:10:40;18.10;80.60
54938;DHT22;52756;52.826;6.214;2023-07-31T04:13:06;18.10;80.60
54938;DHT22;52756;52.826;6.214;2023-07-31T04:15:32;18.10;80.60
54938;DHT22;52756;52.826;6.214;2023-07-31T04:17:57;18.10;80.70
54938;DHT22;52756;52.826;6.214;2023-07-31T04:20:23;18.10;80.70
54938;DHT22;52756;52.826;6.214;2023-07-31T04:22:49;18.10;80.60
54938;DHT22;52756;52.826;6.214;2023-07-31T04:25:15;18.10;80.70
54938;DHT22;52756;52.826;6.214;2023-07-31T04:27:40;18.10;80.70
54938;DHT22;52756;52.826;6.214;2023-07-31T04:30:07;18.20;80.70
54938;DHT22;52756;52.826;6.214;2023-07-31T04:32:32;18.10;80.80
54938;DHT22;52756;52.826;6.214;2023-07-31T04:34:58;18.20;81.00
54938;DHT22;52756;52.826;6.214;2023-07-31T04:37:24;18.10;80.90
54938;DHT22;52756;52.826;6.214;2023-07-31T04:39:49;18.20;81.00
54938;DHT22;52756;52.826;6.214;2023-07-31T04:42:15;18.20;81.20
54938;DHT22;52756;52.826;6.214;2023-07-31T04:44:41;18.20;81.30
54938;DHT22;52756;52.826;6.214;2023-07-31T04:47:06;18.10;81.10
54938;DHT22;52756;52.826;6.214;2023-07-31T04:49:32;18.20;81.20
54938;DHT22;52756;52.826;6.214;2023-07-31T04:51:58;18.20;81.30
54938;DHT22;52756;52.826;6.214;2023-07-31T04:54:24;18.10;81.30
54938;DHT22;52756;52.826;6.214;2023-07-31T04:56:49;18.20;81.40
54938;DHT22;52756;52.826;6.214;2023-07-31T04:59:15;18.20;81.40
54938;DHT22;52756;52.826;6.214;2023-07-31T05:01:41;18.20;81.40
54938;DHT22;52756;52.826;6.214;2023-07-31T05:04:07;18.20;81.40
54938;DHT22;52756;52.826;6.214;2023-07-31T05:06:32;18.20;81.40
54938;DHT22;52756;52.826;6.214;2023-07-31T05:08:58;18.20;81.40
54938;DHT22;52756;52.826;6.214;2023-07-31T05:11:24;18.20;81.50
54938;DHT22;52756;52.826;6.214;2023-07-31T05:13:49;18.20;81.50
54938;DHT22;52756;52.826;6.214;2023-07-31T05:16:15;18.20;81.40
54938;DHT22;52756;52.826;6.214;2023-07-31T05:18:41;18.20;81.40
54938;DHT22;52756;52.826;6.214;2023-07-31T05:21:06;18.20;81.30
54938;DHT22;52756;52.826;6.214;2023-07-31T05:23:32;18.20;81.20
54938;DHT22;52756;52.826;6.214;2023-07-31T05:26:05;18.20;81.20
54938;DHT22;52756;52.826;6.214;2023-07-31T05:28:31;18.20;81.30
54938;DHT22;52756;52.826;6.214;2023-07-31T05:31:01;18.20;81.20
54938;DHT22;52756;52.826;6.214;2023-07-31T05:33:27;18.30;81.30
54938;DHT22;52756;52.826;6.214;2023-07-31T05:35:52;18.20;81.20
54938;DHT22;52756;52.826;6.214;2023-07-31T05:38:18;18.20;81.30
54938;DHT22;52756;52.826;6.214;2023-07-31T05:40:44;18.30;81.40
54938;DHT22;52756;52.826;6.214;2023-07-31T05:43:10;18.20;81.40
54938;DHT22;52756;52.826;6.214;2023-07-31T05:45:36;18.30;81.60
54938;DHT22;52756;52.826;6.214;2023-07-31T05:48:02;18.30;81.60
54938;DHT22;52756;52.826;6.214;2023-07-31T05:50:28;18.30;81.30
54938;DHT22;52756;52.826;6.214;2023-07-31T05:52:54;18.30;81.20
54938;DHT22;52756;52.826;6.214;2023-07-31T05:55:20;18.30;81.30
54938;DHT22;52756;52.826;6.214;2023-07-31T05:57:46;18.30;81.20
54938;DHT22;52756;52.826;6.214;2023-07-31T06:00:12;18.30;81.30
54938;DHT22;52756;52.826;6.214;2023-07-31T06:02:38;18.30;81.50
54938;DHT22;52756;52.826;6.214;2023-07-31T06:05:05;18.30;81.60
54938;DHT22;52756;52.826;6.214;2023-07-31T06:07:34;18.30;81.60
54938;DHT22;52756;52.826;6.214;2023-07-31T06:09:59;18.30;81.70
54938;DHT22;52756;52.826;6.214;2023-07-31T06:12:30;18.30;81.60
54938;DHT22;52756;52.826;6.214;2023-07-31T06:14:56;18.30;81.70
54938;DHT22;52756;52.826;6.214;2023-07-31T06:17:22;18.30;81.70
54938;DHT22;52756;52.826;6.214;2023-07-31T06:19:49;18.30;81.70
54938;DHT22;52756;52.826;6.214;2023-07-31T06:22:15;18.30;81.70
54938;DHT22;52756;52.826;6.214;2023-07-31T06:24:41;18.30;81.60
54938;DHT22;52756;52.826;6.214;2023-07-31T06:27:07;18.30;81.60
54938;DHT22;52756;52.826;6.214;2023-07-31T06:29:32;18.30;81.50
54938;DHT22;52756;52.826;6.214;2023-07-31T06:31:58;18.30;81.50
54938;DHT22;52756;52.826;6.214;2023-07-31T06:34:24;18.30;81.50
54938;DHT22;52756;52.826;6.214;2023-07-31T06:36:50;18.30;81.70
54938;DHT22;52756;52.826;6.214;2023-07-31T06:39:16;18.30;81.80
54938;DHT22;52756;52.826;6.214;2023-07-31T06:41:42;18.30;81.80
54938;DHT22;52756;52.826;6.214;2023-07-31T06:44:08;18.30;81.90
54938;DHT22;52756;52.826;6.214;2023-07-31T06:46:34;18.30;82.00
54938;DHT22;52756;52.826;6.214;2023-07-31T06:48:59;18.30;82.10
54938;DHT22;52756;52.826;6.214;2023-07-31T06:51:25;18.30;82.10
54938;DHT22;52756;52.826;6.214;2023-07-31T06:53:51;18.30;82.10
54938;DHT22;52756;52.826;6.214;2023-07-31T06:56:17;18.20;82.10
54938;DHT22;52756;52.826;6.214;2023-07-31T06:58:42;18.30;82.20
54938;DHT22;52756;52.826;6.214;2023-07-31T07:01:08;18.30;82.30
54938;DHT22;52756;52.826;6.214;2023-07-31T07:03:34;18.20;82.20
54938;DHT22;52756;52.826;6.214;2023-07-31T07:06:00;18.30;82.30
54938;DHT22;52756;52.826;6.214;2023-07-31T07:08:26;18.30;82.30
54938;DHT22;52756;52.826;6.214;2023-07-31T07:10:52;18.30;82.40
54938;DHT22;52756;52.826;6.214;2023-07-31T07:13:18;18.30;82.40
54938;DHT22;52756;52.826;6.214;2023-07-31T07:15:48;18.30;82.40
54938;DHT22;52756;52.826;6.214;2023-07-31T07:18:14;18.30;82.40
54938;DHT22;52756;52.826;6.214;2023-07-31T07:20:41;18.30;82.40
54938;DHT22;52756;52.826;6.214;2023-07-31T07:23:11;18.30;82.40
54938;DHT22;52756;52.826;6.214;2023-07-31T07:25:37;18.30;82.60
54938;DHT22;52756;52.826;6.214;2023-07-31T07:28:03;18.30;82.70
54938;DHT22;52756;52.826;6.214;2023-07-31T07:30:29;18.30;82.60
54938;DHT22;52756;52.826;6.214;2023-07-31T07:32:55;18.30;82.70
54938;DHT22;52756;52.826;6.214;2023-07-31T07:35:20;18.30;82.70
54938;DHT22;52756;52.826;6.214;2023-07-31T07:37:48;18.30;82.60
54938;DHT22;52756;52.826;6.214;2023-07-31T07:40:15;18.30;82.60
54938;DHT22;52756;52.826;6.214;2023-07-31T07:42:41;18.30;82.60
54938;DHT22;52756;52.826;6.214;2023-07-31T07:45:07;18.40;82.70
54938;DHT22;52756;52.826;6.214;2023-07-31T07:47:33;18.40;82.80
54938;DHT22;52756;52.826;6.214;2023-07-31T07:49:59;18.40;82.80
54938;DHT22;52756;52.826;6.214;2023-07-31T07:52:24;18.40;82.80
54938;DHT22;52756;52.826;6.214;2023-07-31T07:54:50;18.40;82.80
54938;DHT22;52756;52.826;6.214;2023-07-31T07:57:16;18.40;82.80
54938;DHT22;52756;52.826;6.214;2023-07-31T07:59:42;18.40;82.90
54938;DHT22;52756;52.826;6.214;2023-07-31T08:02:08;18.50;83.00
54938;DHT22;52756;52.826;6.214;2023-07-31T08:04:33;18.40;82.70
54938;DHT22;52756;52.826;6.214;2023-07-31T08:06:59;18.50;82.80
54938;DHT22;52756;52.826;6.214;2023-07-31T08:09:25;18.50;83.00
54938;DHT22;52756;52.826;6.214;2023-07-31T08:11:50;18.60;83.20
54938;DHT22;52756;52.826;6.214;2023-07-31T08:14:16;18.60;83.40
54938;DHT22;52756;52.826;6.214;2023-07-31T08:16:42;18.60;83.30
54938;DHT22;52756;52.826;6.214;2023-07-31T08:19:08;18.60;83.20
54938;DHT22;52756;52.826;6.214;2023-07-31T08:21:33;18.60;83.00
54938;DHT22;52756;52.826;6.214;2023-07-31T08:23:59;18.70;82.90
54938;DHT22;52756;52.826;6.214;2023-07-31T08:26:25;18.70;82.90
54938;DHT22;52756;52.826;6.214;2023-07-31T08:28:50;18.70;82.80
54938;DHT22;52756;52.826;6.214;2023-07-31T08:31:16;18.70;82.80
54938;DHT22;52756;52.826;6.214;2023-07-31T08:33:42;18.70;82.80
54938;DHT22;52756;52.826;6.214;2023-07-31T08:36:07;18.70;82.80
54938;DHT22;52756;52.826;6.214;2023-07-31T08:38:33;18.70;82.90
54938;DHT22;52756;52.826;6.214;2023-07-31T08:40:59;18.70;83.00
54938;DHT22;52756;52.826;6.214;2023-07-31T08:43:26;18.70;83.20
54938;DHT22;52756;52.826;6.214;2023-07-31T08:45:52;18.80;83.30
54938;DHT22;52756;52.826;6.214;2023-07-31T08:48:20;18.80;83.40
54938;DHT22;52756;52.826;6.214;2023-07-31T08:50:46;18.80;83.50
54938;DHT22;52756;52.826;6.214;2023-07-31T08:53:12;18.80;83.60
54938;DHT22;52756;52.826;6.214;2023-07-31T08:55:38;18.80;83.80
54938;DHT22;52756;52.826;6.214;2023-07-31T08:58:04;18.80;83.80
54938;DHT22;52756;52.826;6.214;2023-07-31T09:00:32;18.80;83.80
54938;DHT22;52756;52.826;6.214;2023-07-31T09:02:59;18.90;84.00
54938;DHT22;52756;52.826;6.214;2023-07-31T09:05:29;18.90;84.10
54938;DHT22;52756;52.826;6.214;2023-07-31T09:07:56;19.00;83.90
54938;DHT22;52756;52.826;6.214;2023-07-31T09:10:23;19.00;83.80
54938;DHT22;52756;52.826;6.214;2023-07-31T09:12:51;19.00;83.90
54938;DHT22;52756;52.826;6.214;2023-07-31T09:15:17;19.00;84.00
54938;DHT22;52756;52.826;6.214;2023-07-31T09:17:43;19.10;84.10
54938;DHT22;52756;52.826;6.214;2023-07-31T09:20:20;19.10;84.10
54938;DHT22;52756;52.826;6.214;2023-07-31T09:22:47;19.10;84.10
54938;DHT22;52756;52.826;6.214;2023-07-31T09:25:25;19.10;83.90
54938;DHT22;52756;52.826;6.214;2023-07-31T09:27:59;19.20;83.90
54938;DHT22;52756;52.826;6.214;2023-07-31T09:30:26;19.20;83.90
54938;DHT22;52756;52.826;6.214;2023-07-31T09:33:03;19.20;83.80
54938;DHT22;52756;52.826;6.214;2023-07-31T09:35:31;19.20;83.90
54938;DHT22;52756;52.826;6.214;2023-07-31T09:38:04;19.30;84.20
54938;DHT22;52756;52.826;6.214;2023-07-31T09:43:05;19.40;84.50
54938;DHT22;52756;52.826;6.214;2023-07-31T09:45:35;19.40;84.50
54938;DHT22;52756;52.826;6.214;2023-07-31T09:48:10;19.50;84.50
54938;DHT22;52756;52.826;6.214;2023-07-31T09:50:41;19.50;84.50
54938;DHT22;52756;52.826;6.214;2023-07-31T09:53:08;19.60;84.60
54938;DHT22;52756;52.826;6.214;2023-07-31T09:55:34;19.60;84.50
54938;DHT22;52756;52.826;6.214;2023-07-31T09:58:09;19.60;84.50
54938;DHT22;52756;52.826;6.214;2023-07-31T10:00:35;19.70;84.40
54938;DHT22;52756;52.826;6.214;2023-07-31T10:03:04;19.70;84.40
54938;DHT22;52756;52.826;6.214;2023-07-31T10:05:39;19.70;84.20
54938;DHT22;52756;52.826;6.214;2023-07-31T10:08:07;19.80;84.20
54938;DHT22;52756;52.826;6.214;2023-07-31T10:10:35;19.80;84.10
54938;DHT22;52756;52.826;6.214;2023-07-31T10:13:04;19.90;83.90
54938;DHT22;52756;52.826;6.214;2023-07-31T10:15:31;19.90;83.90
54938;DHT22;52756;52.826;6.214;2023-07-31T10:17:58;19.90;83.90
54938;DHT22;52756;52.826;6.214;2023-07-31T10:20:24;20.00;84.00
54938;DHT22;52756;52.826;6.214;2023-07-31T10:22:52;20.00;84.10
54938;DHT22;52756;52.826;6.214;2023-07-31T10:25:19;20.10;84.00
54938;DHT22;52756;52.826;6.214;2023-07-31T10:27:47;20.10;83.90
54938;DHT22;52756;52.826;6.214;2023-07-31T10:30:18;20.10;83.80
54938;DHT22;52756;52.826;6.214;2023-07-31T10:32:45;20.20;83.70
54938;DHT22;52756;52.826;6.214;2023-07-31T10:35:12;20.20;83.60
54938;DHT22;52756;52.826;6.214;2023-07-31T10:37:42;20.20;83.50
54938;DHT22;52756;52.826;6.214;2023-07-31T10:40:19;20.20;83.30
54938;DHT22;52756;52.826;6.214;2023-07-31T10:45:36;20.30;83.00
54938;DHT22;52756;52.826;6.214;2023-07-31T10:50:29;20.30;82.90
54938;DHT22;52756;52.826;6.214;2023-07-31T10:52:57;20.30;82.80
54938;DHT22;52756;52.826;6.214;2023-07-31T10:55:38;20.30;82.80
54938;DHT22;52756;52.826;6.214;2023-07-31T10:58:09;20.30;82.70
54938;DHT22;52756;52.826;6.214;2023-07-31T11:00:40;20.30;82.80
54938;DHT22;52756;52.826;6.214;2023-07-31T11:03:17;20.40;83.00
54938;DHT22;52756;52.826;6.214;2023-07-31T11:05:48;20.40;83.00
54938;DHT22;52756;52.826;6.214;2023-07-31T11:08:18;20.50;83.40
54938;DHT22;52756;52.826;6.214;2023-07-31T11:13:30;20.50;83.20
54938;DHT22;52756;52.826;6.214;2023-07-31T11:15:55;20.50;83.10
54938;DHT22;52756;52.826;6.214;2023-07-31T11:18:21;20.50;83.20
54938;DHT22;52756;52.826;6.214;2023-07-31T11:20:47;20.60;83.60
54938;DHT22;52756;52.826;6.214;2023-07-31T11:23:13;20.60;83.90
54938;DHT22;52756;52.826;6.214;2023-07-31T11:25:41;20.70;84.00
54938;DHT22;52756;52.826;6.214;2023-07-31T11:28:12;20.70;83.80
54938;DHT22;52756;52.826;6.214;2023-07-31T11:30:39;20.80;83.80
54938;DHT22;52756;52.826;6.214;2023-07-31T11:33:07;20.80;83.50
54938;DHT22;52756;52.826;6.214;2023-07-31T11:35:35;20.90;83.30
54938;DHT22;52756;52.826;6.214;2023-07-31T11:38:01;20.90;83.20
54938;DHT22;52756;52.826;6.214;2023-07-31T11:40:28;20.90;83.00
54938;DHT22;52756;52.826;6.214;2023-07-31T11:42:59;20.90;82.70
54938;DHT22;52756;52.826;6.214;2023-07-31T11:45:29;21.00;82.50
54938;DHT22;52756;52.826;6.214;2023-07-31T11:47:56;21.00;82.40
54938;DHT22;52756;52.826;6.214;2023-07-31T11:50:23;21.00;82.40
54938;DHT22;52756;52.826;6.214;2023-07-31T11:53:00;21.00;82.30
54938;DHT22;52756;52.826;6.214;2023-07-31T11:55:27;21.00;82.00
54938;DHT22;52756;52.826;6.214;2023-07-31T11:57:54;21.00;81.80
54938;DHT22;52756;52.826;6.214;2023-07-31T12:00:21;21.00;81.10
54938;DHT22;52756;52.826;6.214;2023-07-31T12:02:47;21.00;80.50
54938;DHT22;52756;52.826;6.214;2023-07-31T12:05:13;20.90;80.60
54938;DHT22;52756;52.826;6.214;2023-07-31T12:07:54;20.90;80.80
54938;DHT22;52756;52.826;6.214;2023-07-31T12:13:04;20.90;81.20
54938;DHT22;52756;52.826;6.214;2023-07-31T12:15:42;20.90;81.50
54938;DHT22;52756;52.826;6.214;2023-07-31T12:18:21;20.90;81.30
54938;DHT22;52756;52.826;6.214;2023-07-31T12:23:21;20.90;81.20
54938;DHT22;52756;52.826;6.214;2023-07-31T12:28:29;20.90;81.40
54938;DHT22;52756;52.826;6.214;2023-07-31T12:30:59;21.00;81.50
54938;DHT22;52756;52.826;6.214;2023-07-31T12:33:37;21.00;81.40
54938;DHT22;52756;52.826;6.214;2023-07-31T12:36:13;21.00;81.30
54938;DHT22;52756;52.826;6.214;2023-07-31T12:38:40;21.00;81.10
54938;DHT22;52756;52.826;6.214;2023-07-31T12:41:06;21.00;81.10
54938;DHT22;52756;52.826;6.214;2023-07-31T12:43:33;21.10;81.10
54938;DHT22;52756;52.826;6.214;2023-07-31T12:45:59;21.10;81.00
54938;DHT22;52756;52.826;6.214;2023-07-31T12:48:25;21.10;81.00
54938;DHT22;52756;52.826;6.214;2023-07-31T12:50:50;21.10;81.10
54938;DHT22;52756;52.826;6.214;2023-07-31T12:53:16;21.10;81.30
54938;DHT22;52756;52.826;6.214;2023-07-31T12:55:42;21.20;81.60
54938;DHT22;52756;52.826;6.214;2023-07-31T12:58:08;21.20;81.50
54938;DHT22;52756;52.826;6.214;2023-07-31T13:00:34;21.30;81.30
54938;DHT22;52756;52.826;6.214;2023-07-31T13:03:00;21.30;80.80
54938;DHT22;52756;52.826;6.214;2023-07-31T13:05:27;21.40;80.50
54938;DHT22;52756;52.826;6.214;2023-07-31T13:07:53;21.40;80.30
54938;DHT22;52756;52.826;6.214;2023-07-31T13:10:19;21.40;80.00
54938;DHT22;52756;52.826;6.214;2023-07-31T13:12:45;21.40;79.70
54938;DHT22;52756;52.826;6.214;2023-07-31T13:15:12;21.50;79.60
54938;DHT22;52756;52.826;6.214;2023-07-31T13:17:38;21.40;79.10
54938;DHT22;52756;52.826;6.214;2023-07-31T13:20:04;21.50;78.80
54938;DHT22;52756;52.826;6.214;2023-07-31T13:22:30;21.50;78.60
54938;DHT22;52756;52.826;6.214;2023-07-31T13:24:56;21.50;78.70
54938;DHT22;52756;52.826;6.214;2023-07-31T13:27:22;21.40;78.60
54938;DHT22;52756;52.826;6.214;2023-07-31T13:29:48;21.50;78.60
54938;DHT22;52756;52.826;6.214;2023-07-31T13:32:16;21.50;78.70
54938;DHT22;52756;52.826;6.214;2023-07-31T13:34:42;21.50;78.90
54938;DHT22;52756;52.826;6.214;2023-07-31T13:37:08;21.50;79.00
54938;DHT22;52756;52.826;6.214;2023-07-31T13:39:34;21.50;78.90
54938;DHT22;52756;52.826;6.214;2023-07-31T13:42:01;21.50;78.70
54938;DHT22;52756;52.826;6.214;2023-07-31T13:44:27;21.50;78.40
54938;DHT22;52756;52.826;6.214;2023-07-31T13:46:53;21.50;78.40
54938;DHT22;52756;52.826;6.214;2023-07-31T13:49:19;21.50;78.30
54938;DHT22;52756;52.826;6.214;2023-07-31T13:51:44;21.50;78.10
54938;DHT22;52756;52.826;6.214;2023-07-31T13:54:10;21.50;77.80
54938;DHT22;52756;52.826;6.214;2023-07-31T13:56:40;21.50;77.80
54938;DHT22;52756;52.826;6.214;2023-07-31T13:59:06;21.50;77.50
54938;DHT22;52756;52.826;6.214;2023-07-31T14:01:32;21.50;77.40
54938;DHT22;52756;52.826;6.214;2023-07-31T14:03:58;21.50;77.30
54938;DHT22;52756;52.826;6.214;2023-07-31T14:06:24;21.60;77.50
54938;DHT22;52756;52.826;6.214;2023-07-31T14:08:49;21.50;77.40
54938;DHT22;52756;52.826;6.214;2023-07-31T14:11:15;21.60;77.40
54938;DHT22;52756;52.826;6.214;2023-07-31T14:13:41;21.60;77.10
54938;DHT22;52756;52.826;6.214;2023-07-31T14:16:06;21.60;77.00
54938;DHT22;52756;52.826;6.214;2023-07-31T14:18:32;21.60;77.10
54938;DHT22;52756;52.826;6.214;2023-07-31T14:20:58;21.60;77.00
54938;DHT22;52756;52.826;6.214;2023-07-31T14:23:24;21.60;76.90
54938;DHT22;52756;52.826;6.214;2023-07-31T14:25:49;21.70;76.90
54938;DHT22;52756;52.826;6.214;2023-07-31T14:28:15;21.60;76.40
54938;DHT22;52756;52.826;6.214;2023-07-31T14:30:41;21.70;76.20
54938;DHT22;52756;52.826;6.214;2023-07-31T14:33:07;21.70;76.00
54938;DHT22;52756;52.826;6.214;2023-07-31T14:35:33;21.70;75.90
54938;DHT22;52756;52.826;6.214;2023-07-31T14:37:59;21.70;76.00
54938;DHT22;52756;52.826;6.214;2023-07-31T14:40:24;21.70;75.90
54938;DHT22;52756;52.826;6.214;2023-07-31T14:42:50;21.70;76.00
54938;DHT22;52756;52.826;6.214;2023-07-31T14:45:16;21.70;75.50
54938;DHT22;52756;52.826;6.214;2023-07-31T14:47:41;21.70;75.20
54938;DHT22;52756;52.826;6.214;2023-07-31T14:50:07;21.70;75.00
54938;DHT22;52756;52.826;6.214;2023-07-31T14:52:33;21.70;74.90
54938;DHT22;52756;52.826;6.214;2023-07-31T14:54:59;21.70;74.80
54938;DHT22;52756;52.826;6.214;2023-07-31T14:57:25;21.70;74.80
54938;DHT22;52756;52.826;6.214;2023-07-31T14:59:50;21.70;74.70
54938;DHT22;52756;52.826;6.214;2023-07-31T15:02:16;21.60;74.60
54938;DHT22;52756;52.826;6.214;2023-07-31T15:04:42;21.60;74.60
54938;DHT22;52756;52.826;6.214;2023-07-31T15:07:08;21.60;74.70
54938;DHT22;52756;52.826;6.214;2023-07-31T15:09:33;21.60;74.80
54938;DHT22;52756;52.826;6.214;2023-07-31T15:11:59;21.50;74.80
54938;DHT22;52756;52.826;6.214;2023-07-31T15:14:25;21.50;74.90
54938;DHT22;52756;52.826;6.214;2023-07-31T15:16:53;21.50;75.00
54938;DHT22;52756;52.826;6.214;2023-07-31T15:19:18;21.50;75.10
54938;DHT22;52756;52.826;6.214;2023-07-31T15:21:44;21.50;75.40
54938;DHT22;52756;52.826;6.214;2023-07-31T15:24:10;21.40;75.30
54938;DHT22;52756;52.826;6.214;2023-07-31T15:26:37;21.40;75.40
54938;DHT22;52756;52.826;6.214;2023-07-31T15:29:06;21.40;75.60
54938;DHT22;52756;52.826;6.214;2023-07-31T15:31:38;21.40;75.60
54938;DHT22;52756;52.826;6.214;2023-07-31T15:34:04;21.30;75.90
54938;DHT22;52756;52.826;6.214;2023-07-31T15:36:30;21.30;76.20
54938;DHT22;52756;52.826;6.214;2023-07-31T15:38:56;21.30;76.20
54938;DHT22;52756;52.826;6.214;2023-07-31T15:41:22;21.30;76.30
54938;DHT22;52756;52.826;6.214;2023-07-31T15:43:49;21.20;76.30
54938;DHT22;52756;52.826;6.214;2023-07-31T15:46:15;21.20;76.50
54938;DHT22;52756;52.826;6.214;2023-07-31T15:48:40;21.20;76.80